Time;durP1;ratioP1;P1;durP2;ratioP2;P2;SDS_P1;SDS_P2;PMS_P1;PMS_P2;Temp;Humidity;BMP_temperature;BMP_pressure;BME280_temperature;BME280_humidity;BME280_pressure;Samples;Min_cycle;Max_cycle;Signal;HPM_P1;HPM_P2
2024/02/15 00:01:15;;;;;;;;;;;;;;;;;;2203260;59;1514;-17
2024/02/15 00:03:45;;;;;;;;;;;;;;;;;;2204314;67;1936;-17
2024/02/15 00:06:15;;;;;;;;;;;;;;;;;;2203598;59;2083;-16
2024/02/15 00:08:46;;;;;;;;;;;;;;;;;;2203411;67;1318;-17
2024/02/15 00:11:18;;;;;;;;;;;;;;;;;;2203094;67;1536;-17
2024/02/15 00:13:48;;;;;;;;;;;;;;;;;;2202747;59;1764;-16
2024/02/15 00:16:18;;;;;;;;;;;;;;;;;;2202883;67;1633;-17
2024/02/15 00:18:50;;;;;;;;;;;;;;;;;;2204752;67;1576;-16
2024/02/15 00:21:22;;;;;;;;;;;;;;;;;;2204314;67;1567;-16
2024/02/15 00:23:55;;;;;;;;;;;;;;;;;;2203393;59;1975;-17
2024/02/15 00:26:26;;;;;;;;;;;;;;;;;;2202622;67;1665;-16
2024/02/15 00:29:02;;;;;;;;;;;;;;;;;;2204720;67;1414;-17
2024/02/15 00:31:32;;;;;;;;;;;;;;;;;;2202935;67;1584;-16
2024/02/15 00:34:03;;;;;;;;;;;;;;;;;;2203641;59;1925;-16
2024/02/15 00:36:35;;;;;;;;;;;;;;;;;;2200350;59;1559;-17
2024/02/15 00:39:05;;;;;;;;;;;;;;;;;;2203105;59;1681;-16
2024/02/15 00:41:41;;;;;;;;;;;;;;;;;;2202560;59;2068;-16
2024/02/15 00:44:12;;;;;;;;;;;;;;;;;;2202974;67;1997;-16
2024/02/15 00:46:47;;;;;;;;;;;;;;;;;;2202874;59;1666;-17
2024/02/15 00:49:20;;;;;;;;;;;;;;;;;;2203341;59;1639;-16
2024/02/15 00:51:50;;;;;;;;;;;;;;;;;;2204482;59;2181;-16
2024/02/15 00:54:22;;;;;;;;;;;;;;;;;;2202101;60;1509;-17
2024/02/15 00:56:53;;;;;;;;;;;;;;;;;;2202749;67;1707;-16
2024/02/15 00:59:25;;;;;;;;;;;;;;;;;;2202098;67;1681;-16
2024/02/15 01:01:55;;;;;;;;;;;;;;;;;;2203498;59;1463;-16
2024/02/15 01:04:26;;;;;;;;;;;;;;;;;;2202355;67;1917;-17
2024/02/15 01:06:56;;;;;;;;;;;;;;;;;;2203003;67;1392;-17
2024/02/15 01:09:26;;;;;;;;;;;;;;;;;;2202529;67;1392;-17
2024/02/15 01:11:57;;;;;;;;;;;;;;;;;;2204326;67;1761;-16
2024/02/15 01:14:30;;;;;;;;;;;;;;;;;;2202873;59;1574;-16
2024/02/15 01:17:00;;;;;;;;;;;;;;;;;;2203042;67;1521;-16
2024/02/15 01:19:31;;;;;;;;;;;;;;;;;;2202893;67;1833;-16
2024/02/15 01:22:02;;;;;;;;;;;;;;;;;;2203726;59;1705;-16
2024/02/15 01:24:32;;;;;;;;;;;;;;;;;;2202697;67;1905;-16
2024/02/15 01:27:03;;;;;;;;;;;;;;;;;;2202903;67;1546;-16
2024/02/15 01:29:33;;;;;;;;;;;;;;;;;;2202897;67;1491;-16
2024/02/15 01:32:05;;;;;;;;;;;;;;;;;;2202310;67;1636;-16
2024/02/15 01:34:35;;;;;;;;;;;;;;;;;;2201482;67;2107;-16
2024/02/15 01:37:05;;;;;;;;;;;;;;;;;;2203527;59;1733;-16
2024/02/15 01:39:36;;;;;;;;;;;;;;;;;;2202185;67;1505;-16
2024/02/15 01:42:06;;;;;;;;;;;;;;;;;;2203789;59;1811;-16
2024/02/15 01:44:37;;;;;;;;;;;;;;;;;;2202794;67;1937;-16
2024/02/15 01:47:13;;;;;;;;;;;;;;;;;;2203000;59;1577;-16
2024/02/15 01:49:48;;;;;;;;;;;;;;;;;;2201098;59;1330;-16
2024/02/15 01:52:21;;;;;;;;;;;;;;;;;;2202526;67;1647;-16
2024/02/15 01:54:55;;;;;;;;;;;;;;;;;;2202901;67;1574;-16
2024/02/15 01:57:26;;;;;;;;;;;;;;;;;;2202667;59;1628;-16
2024/02/15 01:59:57;;;;;;;;;;;;;;;;;;2203679;59;1701;-16
2024/02/15 02:02:34;;;;;;;;;;;;;;;;;;2201245;67;1846;-16
2024/02/15 02:05:05;;;;;;;;;;;;;;;;;;2204051;67;1977;-16
2024/02/15 02:07:38;;;;;;;;;;;;;;;;;;2201815;59;1744;-16
2024/02/15 02:10:11;;;;;;;;;;;;;;;;;;2204178;67;1597;-17
2024/02/15 02:12:42;;;;;;;;;;;;;;;;;;2202848;67;1623;-17
2024/02/15 02:15:12;;;;;;;;;;;;;;;;;;2202842;59;1836;-16
2024/02/15 02:17:48;;;;;;;;;;;;;;;;;;2199603;67;1507;-17
2024/02/15 02:20:23;;;;;;;;;;;;;;;;;;2204332;67;1551;-16
2024/02/15 02:23:07;;;;;;;;;;;;;;;;;;2202762;59;1981;-16
2024/02/15 02:25:38;;;;;;;;;;;;;;;;;;2202650;67;1852;-16
2024/02/15 02:28:08;;;;;;;;;;;;;;;;;;2203702;67;1407;-16
2024/02/15 02:30:41;;;;;;;;;;;;;;;;;;2203354;67;1626;-16
2024/02/15 02:33:21;;;;;;;;;;;;;;;;;;2203275;59;1625;-16
2024/02/15 02:35:52;;;;;;;;;;;;;;;;;;2201199;67;1427;-16
2024/02/15 02:38:25;;;;;;;;;;;;;;;;;;2204250;59;1359;-16
2024/02/15 02:40:56;;;;;;;;;;;;;;;;;;2204140;59;1551;-16
2024/02/15 02:43:27;;;;;;;;;;;;;;;;;;2201362;67;1924;-16
2024/02/15 02:45:57;;;;;;;;;;;;;;;;;;2202991;67;1512;-16
2024/02/15 02:48:27;;;;;;;;;;;;;;;;;;2203659;67;1316;-16
2024/02/15 02:50:58;;;;;;;;;;;;;;;;;;2203018;59;1484;-16
2024/02/15 02:53:28;;;;;;;;;;;;;;;;;;2201066;67;1726;-16
2024/02/15 02:55:58;;;;;;;;;;;;;;;;;;2202919;59;1883;-16
2024/02/15 02:58:29;;;;;;;;;;;;;;;;;;2202881;67;1578;-16
2024/02/15 03:01:02;;;;;;;;;;;;;;;;;;2206155;59;1573;-17
2024/02/15 03:03:32;;;;;;;;;;;;;;;;;;2202358;67;2005;-16
2024/02/15 03:06:03;;;;;;;;;;;;;;;;;;2202974;59;1536;-16
2024/02/15 03:08:37;;;;;;;;;;;;;;;;;;2203774;67;1469;-16
2024/02/15 03:11:12;;;;;;;;;;;;;;;;;;2203307;67;1413;-16
2024/02/15 03:13:44;;;;;;;;;;;;;;;;;;2202713;59;1525;-16
2024/02/15 03:16:16;;;;;;;;;;;;;;;;;;2203567;67;1498;-17
2024/02/15 03:18:48;;;;;;;;;;;;;;;;;;2204029;67;1530;-16
2024/02/15 03:21:20;;;;;;;;;;;;;;;;;;2204394;59;1408;-16
2024/02/15 03:23:52;;;;;;;;;;;;;;;;;;2203539;59;2215;-16
2024/02/15 03:26:36;;;;;;;;;;;;;;;;;;2203861;67;2224;-17
2024/02/15 03:29:09;;;;;;;;;;;;;;;;;;2203877;67;1452;-16
2024/02/15 03:31:42;;;;;;;;;;;;;;;;;;2203757;67;1383;-16
2024/02/15 03:34:15;;;;;;;;;;;;;;;;;;2204746;59;3088;-19
2024/02/15 03:36:47;;;;;;;;;;;;;;;;;;2203026;59;1569;-19
2024/02/15 03:39:23;;;;;;;;;;;;;;;;;;2204146;59;2050;-18
2024/02/15 03:41:55;;;;;;;;;;;;;;;;;;2203293;59;1567;-19
2024/02/15 03:44:26;;;;;;;;;;;;;;;;;;2203889;67;1942;-18
2024/02/15 03:46:57;;;;;;;;;;;;;;;;;;2201753;59;2386;-19
2024/02/15 03:49:27;;;;;;;;;;;;;;;;;;2201446;67;1687;-19
2024/02/15 03:51:59;;;;;;;;;;;;;;;;;;2202213;59;1920;-18
2024/02/15 03:54:31;;;;;;;;;;;;;;;;;;2202046;59;2051;-18
2024/02/15 03:57:02;;;;;;;;;;;;;;;;;;2203899;67;1881;-19
2024/02/15 03:59:47;;;;;;;;;;;;;;;;;;2202864;59;1742;-19
2024/02/15 04:02:18;;;;;;;;;;;;;;;;;;2203746;67;1603;-18
2024/02/15 04:04:52;;;;;;;;;;;;;;;;;;2202208;67;1924;-19
2024/02/15 04:07:33;;;;;;;;;;;;;;;;;;2204529;59;1488;-18
2024/02/15 04:10:06;;;;;;;;;;;;;;;;;;2204473;67;1361;-18
2024/02/15 04:12:37;;;;;;;;;;;;;;;;;;2204080;67;1536;-19
2024/02/15 04:15:11;;;;;;;;;;;;;;;;;;2204387;59;1634;-19
2024/02/15 04:17:44;;;;;;;;;;;;;;;;;;2202658;67;1393;-18
2024/02/15 04:20:16;;;;;;;;;;;;;;;;;;2204535;59;1618;-18
2024/02/15 04:22:47;;;;;;;;;;;;;;;;;;2201839;67;1871;-19
2024/02/15 04:25:25;;;;;;;;;;;;;;;;;;2203240;67;1944;-19
2024/02/15 04:27:59;;;;;;;;;;;;;;;;;;2203016;67;1468;-18
2024/02/15 04:30:31;;;;;;;;;;;;;;;;;;2204027;59;1963;-18
2024/02/15 04:33:05;;;;;;;;;;;;;;;;;;2203493;59;2359;-18
2024/02/15 04:35:38;;;;;;;;;;;;;;;;;;2203104;67;1801;-18
2024/02/15 04:38:09;;;;;;;;;;;;;;;;;;2203401;67;1883;-18
2024/02/15 04:40:39;;;;;;;;;;;;;;;;;;2203069;59;1673;-19
2024/02/15 04:43:10;;;;;;;;;;;;;;;;;;2203660;67;1955;-19
2024/02/15 04:45:41;;;;;;;;;;;;;;;;;;2202076;67;1397;-19
2024/02/15 04:48:15;;;;;;;;;;;;;;;;;;2203123;59;1942;-18
2024/02/15 04:50:47;;;;;;;;;;;;;;;;;;2202250;59;1600;-18
2024/02/15 04:53:17;;;;;;;;;;;;;;;;;;2204544;59;2009;-18
2024/02/15 04:55:48;;;;;;;;;;;;;;;;;;2203126;59;1899;-19
2024/02/15 04:58:21;;;;;;;;;;;;;;;;;;2203698;59;1463;-19
2024/02/15 05:00:54;;;;;;;;;;;;;;;;;;2202701;59;1707;-19
2024/02/15 05:03:25;;;;;;;;;;;;;;;;;;2203997;67;1955;-19
2024/02/15 05:05:55;;;;;;;;;;;;;;;;;;2202801;67;1318;-19
2024/02/15 05:08:26;;;;;;;;;;;;;;;;;;2203137;59;1529;-19
2024/02/15 05:10:58;;;;;;;;;;;;;;;;;;2203453;67;1373;-19
2024/02/15 05:13:28;;;;;;;;;;;;;;;;;;2203427;59;1401;-19
2024/02/15 05:15:59;;;;;;;;;;;;;;;;;;2202878;59;1701;-19
2024/02/15 05:18:30;;;;;;;;;;;;;;;;;;2202846;67;1825;-19
2024/02/15 05:21:02;;;;;;;;;;;;;;;;;;2199937;67;1493;-19
2024/02/15 05:23:34;;;;;;;;;;;;;;;;;;2204502;59;1925;-19
2024/02/15 05:26:04;;;;;;;;;;;;;;;;;;2202529;67;1548;-18
2024/02/15 05:28:35;;;;;;;;;;;;;;;;;;2202509;67;1387;-19
2024/02/15 05:31:16;;;;;;;;;;;;;;;;;;2203711;67;1689;-19
2024/02/15 05:33:48;;;;;;;;;;;;;;;;;;2201907;59;1729;-19
2024/02/15 05:36:38;;;;;;;;;;;;;;;;;;2203192;59;1635;-19
2024/02/15 05:39:11;;;;;;;;;;;;;;;;;;2203330;59;1478;-19
2024/02/15 05:41:42;;;;;;;;;;;;;;;;;;2202123;59;1545;-19
2024/02/15 05:44:14;;;;;;;;;;;;;;;;;;2202857;67;1932;-19
2024/02/15 05:46:45;;;;;;;;;;;;;;;;;;2202548;59;1579;-18
2024/02/15 05:49:18;;;;;;;;;;;;;;;;;;2203817;59;1514;-19
2024/02/15 05:51:49;;;;;;;;;;;;;;;;;;2202338;59;2449;-18
2024/02/15 05:54:19;;;;;;;;;;;;;;;;;;2203668;59;1849;-18
2024/02/15 05:56:51;;;;;;;;;;;;;;;;;;2202670;59;1493;-19
2024/02/15 05:59:22;;;;;;;;;;;;;;;;;;2203909;67;1490;-19
2024/02/15 06:01:52;;;;;;;;;;;;;;;;;;2202615;59;1590;-19
2024/02/15 06:04:24;;;;;;;;;;;;;;;;;;2202965;67;1938;-19
2024/02/15 06:06:58;;;;;;;;;;;;;;;;;;2202279;59;1519;-19
2024/02/15 06:09:30;;;;;;;;;;;;;;;;;;2204225;59;1626;-19
2024/02/15 06:12:01;;;;;;;;;;;;;;;;;;2202530;67;1891;-18
2024/02/15 06:14:31;;;;;;;;;;;;;;;;;;2204506;59;1786;-19
2024/02/15 06:17:02;;;;;;;;;;;;;;;;;;2202702;67;1632;-18
2024/02/15 06:19:32;;;;;;;;;;;;;;;;;;2203602;59;1347;-19
2024/02/15 06:22:12;;;;;;;;;;;;;;;;;;2202839;59;1607;-19
2024/02/15 06:24:43;;;;;;;;;;;;;;;;;;2204328;67;1971;-18
2024/02/15 06:27:15;;;;;;;;;;;;;;;;;;2204549;59;1579;-18
2024/02/15 06:41:06;;;;;;;;;;;;;;;;;;2203501;67;1685;-19
2024/02/15 06:43:36;;;;;;;;;;;;;;;;;;2203635;67;1929;-19
2024/02/15 06:46:10;;;;;;;;;;;;;;;;;;2202604;67;1749;-19
2024/02/15 06:48:46;;;;;;;;;;;;;;;;;;2203508;59;1494;-19
2024/02/15 06:51:16;;;;;;;;;;;;;;;;;;2203581;67;1681;-19
2024/02/15 06:53:47;;;;;;;;;;;;;;;;;;2202617;59;2163;-19
2024/02/15 06:56:20;;;;;;;;;;;;;;;;;;2203490;59;1765;-19
2024/02/15 06:58:54;;;;;;;;;;;;;;;;;;2203756;67;1542;-19
2024/02/15 07:01:25;;;;;;;;;;;;;;;;;;2204431;59;1599;-18
2024/02/15 07:03:55;;;;;;;;;;;;;;;;;;2202398;67;1987;-18
2024/02/15 07:06:27;;;;;;;;;;;;;;;;;;2203604;67;1461;-19
2024/02/15 07:08:57;;;;;;;;;;;;;;;;;;2202586;59;1329;-19
2024/02/15 07:11:30;;;;;;;;;;;;;;;;;;2204240;59;2118;-19
2024/02/15 07:14:07;;;;;;;;;;;;;;;;;;2200912;59;2197;-19
2024/02/15 07:16:38;;;;;;;;;;;;;;;;;;2201828;59;2262;-19
2024/02/15 07:19:10;;;;;;;;;;;;;;;;;;2202951;59;2683;-18
2024/02/15 07:21:41;;;;;;;;;;;;;;;;;;2202609;59;2620;-19
2024/02/15 07:24:13;;;;;;;;;;;;;;;;;;2201706;59;2582;-19
2024/02/15 07:26:44;;;;;;;;;;;;;;;;;;2201967;59;2161;-19
2024/02/15 07:29:15;;;;;;;;;;;;;;;;;;2202391;59;2186;-19
2024/02/15 07:31:45;;;;;;;;;;;;;;;;;;2200657;59;2869;-19
2024/02/15 07:34:16;;;;;;;;;;;;;;;;;;2203375;59;2233;-19
2024/02/15 07:36:46;;;;;;;;;;;;;;;;;;2202484;59;2303;-19
2024/02/15 07:39:23;;;;;;;;;;;;;;;;;;2203668;59;2110;-19
2024/02/15 07:41:58;;;;;;;;;;;;;;;;;;2202812;59;1964;-19
2024/02/15 07:44:32;;;;;;;;;;;;;;;;;;2204725;59;2185;-19
2024/02/15 07:47:04;;;;;;;;;;;;;;;;;;2202112;59;2335;-19
2024/02/15 07:49:36;;;;;;;;;;;;;;;;;;2203653;59;2620;-19
2024/02/15 07:52:09;;;;;;;;;;;;;;;;;;2202400;59;2168;-19
2024/02/15 07:54:41;;;;;;;;;;;;;;;;;;2203823;59;2030;-19
2024/02/15 07:57:11;;;;;;;;;;;;;;;;;;2202370;59;2331;-27
2024/02/15 07:59:42;;;;;;;;;;;;;;;;;;2203812;59;2283;-20
2024/02/15 08:02:12;;;;;;;;;;;;;;;;;;2202684;59;1970;-19
2024/02/15 08:04:44;;;;;;;;;;;;;;;;;;2202730;59;2350;-20
2024/02/15 08:07:14;;;;;;;;;;;;;;;;;;2202373;59;2793;-19
2024/02/15 08:09:45;;;;;;;;;;;;;;;;;;2201528;59;2380;-20
2024/02/15 08:12:15;;;;;;;;;;;;;;;;;;2202320;59;2539;-20
2024/02/15 08:14:45;;;;;;;;;;;;;;;;;;2203039;59;2659;-20
2024/02/15 08:17:17;;;;;;;;;;;;;;;;;;2202867;59;2256;-20
2024/02/15 08:19:47;;;;;;;;;;;;;;;;;;2203416;59;2222;-19
2024/02/15 08:22:23;;;;;;;;;;;;;;;;;;2200772;59;2762;-19
2024/02/15 08:24:55;;;;;;;;;;;;;;;;;;2203247;59;2626;-19
2024/02/15 08:27:28;;;;;;;;;;;;;;;;;;2204975;59;2264;-19
2024/02/15 08:29:59;;;;;;;;;;;;;;;;;;2202156;59;2330;-19
2024/02/15 08:32:30;;;;;;;;;;;;;;;;;;2204242;59;2192;-19
2024/02/15 08:35:04;;;;;;;;;;;;;;;;;;2203716;59;2406;-20
2024/02/15 08:37:38;;;;;;;;;;;;;;;;;;2205079;59;2633;-19
2024/02/15 08:40:15;;;;;;;;;;;;;;;;;;2202195;59;2156;-19
2024/02/15 08:42:45;;;;;;;;;;;;;;;;;;2204097;59;1918;-19
2024/02/15 08:45:16;;;;;;;;;;;;;;;;;;2203470;67;1902;-19
2024/02/15 08:47:46;;;;;;;;;;;;;;;;;;2204874;59;1429;-20
2024/02/15 08:50:18;;;;;;;;;;;;;;;;;;2203851;59;1575;-19
2024/02/15 08:52:49;;;;;;;;;;;;;;;;;;2203385;67;2259;-20
2024/02/15 08:55:23;;;;;;;;;;;;;;;;;;2203435;67;1667;-19
2024/02/15 08:57:54;;;;;;;;;;;;;;;;;;2204609;59;1763;-19
2024/02/15 09:00:26;;;;;;;;;;;;;;;;;;2204092;67;1301;-20
2024/02/15 09:02:58;;;;;;;;;;;;;;;;;;2204291;67;1473;-19
2024/02/15 09:05:28;;;;;;;;;;;;;;;;;;2204371;67;1989;-19
2024/02/15 09:07:59;;;;;;;;;;;;;;;;;;2203545;59;1465;-19
2024/02/15 09:10:30;;;;;;;;;;;;;;;;;;2204599;67;1950;-19
2024/02/15 09:13:00;;;;;;;;;;;;;;;;;;2202208;59;2197;-19
2024/02/15 09:15:31;;;;;;;;;;;;;;;;;;2204555;59;1851;-19
2024/02/15 09:18:01;;;;;;;;;;;;;;;;;;2203557;59;1949;-19
2024/02/15 09:20:33;;;;;;;;;;;;;;;;;;2203311;67;1864;-28
2024/02/15 09:23:09;;;;;;;;;;;;;;;;;;2203019;59;1650;-19
2024/02/15 09:25:43;;;;;;;;;;;;;;;;;;2203761;67;1608;-19
2024/02/15 09:28:14;;;;;;;;;;;;;;;;;;2203237;67;1768;-19
2024/02/15 09:30:46;;;;;;;;;;;;;;;;;;2203639;67;2211;-21
2024/02/15 09:33:20;;;;;;;;;;;;;;;;;;2202583;59;1637;-19
2024/02/15 09:35:56;;;;;;;;;;;;;;;;;;2202307;59;1784;-19
2024/02/15 09:38:29;;;;;;;;;;;;;;;;;;2204337;59;1769;-19
2024/02/15 09:41:07;;;;;;;;;;;;;;;;;;2203678;59;2213;-19
2024/02/15 09:43:38;;;;;;;;;;;;;;;;;;2202842;67;1938;-19
2024/02/15 09:46:08;;;;;;;;;;;;;;;;;;2202636;59;1674;-19
2024/02/15 09:48:41;;;;;;;;;;;;;;;;;;2204005;67;1357;-19
2024/02/15 09:51:14;;;;;;;;;;;;;;;;;;2203059;59;1679;-19
2024/02/15 09:53:47;;;;;;;;;;;;;;;;;;2204498;67;2411;-19
2024/02/15 09:56:18;;;;;;;;;;;;;;;;;;2202175;67;1710;-19
2024/02/15 09:58:48;;;;;;;;;;;;;;;;;;2202682;67;1499;-19
2024/02/15 10:01:22;;;;;;;;;;;;;;;;;;2203226;59;1577;-19
2024/02/15 10:03:52;;;;;;;;;;;;;;;;;;2202610;67;1941;-19
2024/02/15 10:06:23;;;;;;;;;;;;;;;;;;2203214;67;1867;-19
2024/02/15 10:09:16;;;;;;;;;;;;;;;;;;2202743;59;1745;-19
2024/02/15 10:11:56;;;;;;;;;;;;;;;;;;2203261;67;1871;-19
2024/02/15 10:14:29;;;;;;;;;;;;;;;;;;2202682;59;2661;-19
2024/02/15 10:17:10;;;;;;;;;;;;;;;;;;2203710;67;1759;-20
2024/02/15 10:19:43;;;;;;;;;;;;;;;;;;2202444;59;2763;-19
2024/02/15 10:22:16;;;;;;;;;;;;;;;;;;2202575;59;1675;-19
2024/02/15 10:24:47;;;;;;;;;;;;;;;;;;2203035;67;2735;-19
2024/02/15 10:27:23;;;;;;;;;;;;;;;;;;2202121;67;2194;-19
2024/02/15 10:29:54;;;;;;;;;;;;;;;;;;2202827;67;1453;-20
2024/02/15 10:32:34;;;;;;;;;;;;;;;;;;2203268;59;2153;-20
2024/02/15 10:35:05;;;;;;;;;;;;;;;;;;2206291;59;1691;-19
2024/02/15 10:37:35;;;;;;;;;;;;;;;;;;2204651;59;1513;-20
2024/02/15 10:40:07;;;;;;;;;;;;;;;;;;2203319;59;1568;-20
2024/02/15 10:42:41;;;;;;;;;;;;;;;;;;2204376;59;1664;-20
2024/02/15 10:45:14;;;;;;;;;;;;;;;;;;2202948;67;1988;-19
2024/02/15 10:47:46;;;;;;;;;;;;;;;;;;2203897;59;1884;-19
2024/02/15 10:50:17;;;;;;;;;;;;;;;;;;2202978;59;1853;-19
2024/02/15 10:52:58;;;;;;;;;;;;;;;;;;2204217;67;1444;-19
2024/02/15 10:55:51;;;;;;;;;;;;;;;;;;2204061;59;1920;-20
2024/02/15 10:58:31;;;;;;;;;;;;;;;;;;2203605;67;2716;-19
2024/02/15 11:01:05;;;;;;;;;;;;;;;;;;2202630;59;1592;-19
2024/02/15 11:03:41;;;;;;;;;;;;;;;;;;2203458;67;1991;-19
2024/02/15 11:06:12;;;;;;;;;;;;;;;;;;2203016;67;1462;-19
2024/02/15 11:08:45;;;;;;;;;;;;;;;;;;2205223;59;1508;-19
2024/02/15 11:11:19;;;;;;;;;;;;;;;;;;2203944;67;1638;-19
2024/02/15 11:14:10;;;;;;;;;;;;;;;;;;2205014;59;1652;-19
2024/02/15 11:16:43;;;;;;;;;;;;;;;;;;2204179;59;2183;-19
2024/02/15 11:19:36;;;;;;;;;;;;;;;;;;2203972;67;1454;-19
2024/02/15 11:22:11;;;;;;;;;;;;;;;;;;2203467;59;2293;-19
2024/02/15 11:24:47;;;;;;;;;;;;;;;;;;2203580;67;1936;-19
2024/02/15 11:27:28;;;;;;;;;;;;;;;;;;2203696;67;2040;-19
2024/02/15 11:30:04;;;;;;;;;;;;;;;;;;2204303;67;1382;-19
2024/02/15 11:32:49;;;;;;;;;;;;;;;;;;2207744;59;2167;-19
2024/02/15 11:35:23;;;;;;;;;;;;;;;;;;2204279;67;1379;-19
2024/02/15 11:38:03;;;;;;;;;;;;;;;;;;2204796;59;1603;-19
2024/02/15 11:40:43;;;;;;;;;;;;;;;;;;2205536;59;2577;-19
2024/02/15 11:43:33;;;;;;;;;;;;;;;;;;2201670;59;2315;-19
2024/02/15 11:46:04;;;;;;;;;;;;;;;;;;2202505;59;2060;-19
2024/02/15 11:48:39;;;;;;;;;;;;;;;;;;2203759;67;2113;-19
2024/02/15 11:51:27;;;;;;;;;;;;;;;;;;2201166;67;2104;-19
2024/02/15 11:53:59;;;;;;;;;;;;;;;;;;2200526;59;2238;-19
2024/02/15 11:56:29;;;;;;;;;;;;;;;;;;2203751;59;2559;-19
2024/02/15 11:59:06;;;;;;;;;;;;;;;;;;2201684;67;1546;-19
2024/02/15 12:18:52;;;;;;;;;;;;;;;;;;2205549;59;2074;-20
2024/02/15 12:21:26;;;;;;;;;;;;;;;;;;2204373;67;2492;-20
2024/02/15 12:24:05;;;;;;;;;;;;;;;;;;2204129;67;1914;-20
2024/02/15 12:26:38;;;;;;;;;;;;;;;;;;2205395;67;1504;-20
2024/02/15 12:29:10;;;;;;;;;;;;;;;;;;2205203;67;1791;-20
2024/02/15 12:31:45;;;;;;;;;;;;;;;;;;2205306;62;1661;-19
2024/02/15 12:34:20;;;;;;;;;;;;;;;;;;2203944;59;2150;-20
2024/02/15 12:36:52;;;;;;;;;;;;;;;;;;2205745;59;1770;-20
2024/02/15 12:39:27;;;;;;;;;;;;;;;;;;2206323;59;1584;-20
2024/02/15 12:41:58;;;;;;;;;;;;;;;;;;2205060;59;2154;-20
2024/02/15 12:44:32;;;;;;;;;;;;;;;;;;2205240;59;1939;-20
2024/02/15 12:47:05;;;;;;;;;;;;;;;;;;2203526;59;1838;-20
2024/02/15 12:49:36;;;;;;;;;;;;;;;;;;2204438;59;1730;-20
2024/02/15 12:52:26;;;;;;;;;;;;;;;;;;2203387;59;1693;-20
2024/02/15 12:55:15;;;;;;;;;;;;;;;;;;2204811;59;2109;-20
2024/02/15 12:57:50;;;;;;;;;;;;;;;;;;2204866;59;2084;-20
2024/02/15 13:00:28;;;;;;;;;;;;;;;;;;2205169;59;1672;-20
2024/02/15 13:02:59;;;;;;;;;;;;;;;;;;2204705;67;1660;-20
2024/02/15 13:05:30;;;;;;;;;;;;;;;;;;2205151;67;1971;-20
2024/02/15 13:08:02;;;;;;;;;;;;;;;;;;2204024;67;1969;-20
2024/02/15 13:10:32;;;;;;;;;;;;;;;;;;2204035;67;1464;-20
2024/02/15 13:13:03;;;;;;;;;;;;;;;;;;2202724;59;2241;-20
2024/02/15 13:15:33;;;;;;;;;;;;;;;;;;2204400;59;1585;-19
2024/02/15 13:18:04;;;;;;;;;;;;;;;;;;2202483;67;1575;-20
2024/02/15 13:20:37;;;;;;;;;;;;;;;;;;2204803;59;1554;-19
2024/02/15 13:23:31;;;;;;;;;;;;;;;;;;2203878;59;1569;-19
2024/02/15 13:26:04;;;;;;;;;;;;;;;;;;2203549;67;1910;-20
2024/02/15 13:28:34;;;;;;;;;;;;;;;;;;2204702;59;1754;-19
2024/02/15 13:31:05;;;;;;;;;;;;;;;;;;2204971;67;2801;-20
2024/02/15 13:33:36;;;;;;;;;;;;;;;;;;2204014;67;2184;-19
2024/02/15 13:36:10;;;;;;;;;;;;;;;;;;2203291;59;1922;-19
2024/02/15 13:38:47;;;;;;;;;;;;;;;;;;2204559;59;1543;-19
2024/02/15 13:41:17;;;;;;;;;;;;;;;;;;2203595;59;1635;-20
2024/02/15 13:43:49;;;;;;;;;;;;;;;;;;2203508;67;1900;-19
2024/02/15 13:46:20;;;;;;;;;;;;;;;;;;2204017;59;1839;-20
2024/02/15 13:48:50;;;;;;;;;;;;;;;;;;2204290;59;1414;-19
2024/02/15 13:51:21;;;;;;;;;;;;;;;;;;2203389;59;2104;-19
2024/02/15 13:53:51;;;;;;;;;;;;;;;;;;2205005;67;1706;-19
2024/02/15 13:56:22;;;;;;;;;;;;;;;;;;2203442;67;1340;-19
2024/02/15 13:58:52;;;;;;;;;;;;;;;;;;2205212;67;1460;-19
2024/02/15 14:01:25;;;;;;;;;;;;;;;;;;2203381;62;1520;-19
2024/02/15 14:03:55;;;;;;;;;;;;;;;;;;2204010;67;1929;-20
2024/02/15 14:06:26;;;;;;;;;;;;;;;;;;2203086;67;1512;-19
2024/02/15 14:08:56;;;;;;;;;;;;;;;;;;2204593;67;1450;-19
2024/02/15 14:11:26;;;;;;;;;;;;;;;;;;2202424;59;1644;-19
2024/02/15 14:13:58;;;;;;;;;;;;;;;;;;2200613;59;1999;-19
2024/02/15 14:16:29;;;;;;;;;;;;;;;;;;2202890;59;1667;-19
2024/02/15 14:19:03;;;;;;;;;;;;;;;;;;2204278;59;1927;-19
2024/02/15 14:21:38;;;;;;;;;;;;;;;;;;2204202;67;1705;-19
2024/02/15 14:24:08;;;;;;;;;;;;;;;;;;2203066;59;1972;-19
2024/02/15 14:26:39;;;;;;;;;;;;;;;;;;2201895;67;1665;-19
2024/02/15 14:29:09;;;;;;;;;;;;;;;;;;2204097;67;1349;-17
2024/02/15 14:34:32;;;;;;;;;;;;;;;;;;2203494;59;2473;-17
2024/02/15 14:37:05;;;;;;;;;;;;;;;;;;2204267;59;1901;-17
2024/02/15 14:39:36;;;;;;;;;;;;;;;;;;2204562;67;1581;-18
2024/02/15 14:42:12;;;;;;;;;;;;;;;;;;2203811;59;1468;-17
2024/02/15 14:44:43;;;;;;;;;;;;;;;;;;2204034;67;1948;-17
2024/02/15 14:47:14;;;;;;;;;;;;;;;;;;2204063;59;1766;-18
2024/02/15 14:49:44;;;;;;;;;;;;;;;;;;2203350;59;1627;-17
2024/02/15 14:52:14;;;;;;;;;;;;;;;;;;2201019;59;1890;-17
2024/02/15 14:54:45;;;;;;;;;;;;;;;;;;2204519;59;1949;-17
2024/02/15 14:57:20;;;;;;;;;;;;;;;;;;2204317;67;1676;-17
2024/02/15 14:59:50;;;;;;;;;;;;;;;;;;2204486;67;1455;-18
2024/02/15 15:02:22;;;;;;;;;;;;;;;;;;2204138;67;1735;-17
2024/02/15 15:13:25;;;;;;;;;;;;;;;;;;2203380;67;1666;-17
2024/02/15 15:15:55;;;;;;;;;;;;;;;;;;2203554;59;2160;-17
2024/02/15 15:18:27;;;;;;;;;;;;;;;;;;2202860;59;1494;-17
2024/02/15 15:20:59;;;;;;;;;;;;;;;;;;2203976;67;1583;-17
2024/02/15 15:23:30;;;;;;;;;;;;;;;;;;2203802;67;2270;-17
2024/02/15 15:26:11;;;;;;;;;;;;;;;;;;2203331;59;1463;-17
2024/02/15 15:28:43;;;;;;;;;;;;;;;;;;2205821;67;1843;-17
2024/02/15 15:31:15;;;;;;;;;;;;;;;;;;2201099;59;1480;-17
2024/02/15 15:33:45;;;;;;;;;;;;;;;;;;2204179;59;1435;-17
2024/02/15 15:36:17;;;;;;;;;;;;;;;;;;2203600;59;1799;-17
2024/02/15 15:38:49;;;;;;;;;;;;;;;;;;2204648;59;1761;-17
2024/02/15 15:41:22;;;;;;;;;;;;;;;;;;2203253;59;1678;-17
2024/02/15 15:43:52;;;;;;;;;;;;;;;;;;2203840;67;1937;-17
2024/02/15 15:46:23;;;;;;;;;;;;;;;;;;2203150;59;1626;-17
2024/02/15 15:48:53;;;;;;;;;;;;;;;;;;2203290;67;1877;-17
2024/02/15 15:51:26;;;;;;;;;;;;;;;;;;2202873;59;2074;-17
2024/02/15 15:53:58;;;;;;;;;;;;;;;;;;2203267;67;2378;-19
2024/02/15 15:56:32;;;;;;;;;;;;;;;;;;2202920;59;1555;-20
2024/02/15 15:59:05;;;;;;;;;;;;;;;;;;2202959;67;1663;-19
2024/02/15 16:01:37;;;;;;;;;;;;;;;;;;2202938;59;1579;-19
2024/02/15 16:04:08;;;;;;;;;;;;;;;;;;2203260;67;1917;-19
2024/02/15 16:06:40;;;;;;;;;;;;;;;;;;2200086;67;1904;-19
2024/02/15 16:09:11;;;;;;;;;;;;;;;;;;2203395;67;1477;-19
2024/02/15 16:11:42;;;;;;;;;;;;;;;;;;2205886;67;1642;-19
2024/02/15 16:14:12;;;;;;;;;;;;;;;;;;2202566;60;1870;-19
2024/02/15 16:16:43;;;;;;;;;;;;;;;;;;2203962;59;2644;-19
2024/02/15 16:19:14;;;;;;;;;;;;;;;;;;2202009;59;2552;-19
2024/02/15 16:21:44;;;;;;;;;;;;;;;;;;2202839;59;2350;-19
2024/02/15 16:24:14;;;;;;;;;;;;;;;;;;2202646;59;2396;-19
2024/02/15 16:26:46;;;;;;;;;;;;;;;;;;2202589;67;1693;-19
2024/02/15 16:29:21;;;;;;;;;;;;;;;;;;2202417;59;1905;-19
2024/02/15 16:31:52;;;;;;;;;;;;;;;;;;2202760;67;1581;-19
2024/02/15 16:37:03;;;;;;;;;;;;;;;;;;2194656;59;2641;-25
2024/02/15 16:39:34;;;;;;;;;;;;;;;;;;2197056;59;2034;-25
2024/02/15 16:42:06;;;;;;;;;;;;;;;;;;2197565;59;2020;-25
2024/02/15 16:44:37;;;;;;;;;;;;;;;;;;2196142;59;2681;-25
2024/02/15 16:47:09;;;;;;;;;;;;;;;;;;2197209;59;2361;-25
2024/02/15 16:49:43;;;;;;;;;;;;;;;;;;2196202;59;2345;-25
2024/02/15 16:52:16;;;;;;;;;;;;;;;;;;2197215;59;2425;-25
2024/02/15 16:54:46;;;;;;;;;;;;;;;;;;2196664;64;2212;-25
2024/02/15 16:57:17;;;;;;;;;;;;;;;;;;2196642;59;2322;-25
2024/02/15 16:59:50;;;;;;;;;;;;;;;;;;2198402;59;1762;-25
2024/02/15 17:02:21;;;;;;;;;;;;;;;;;;2195896;59;2070;-25
2024/02/15 17:04:51;;;;;;;;;;;;;;;;;;2196808;62;2580;-25
2024/02/15 17:07:22;;;;;;;;;;;;;;;;;;2196427;67;2603;-25
2024/02/15 17:09:55;;;;;;;;;;;;;;;;;;2197574;60;1688;-25
2024/02/15 17:12:28;;;;;;;;;;;;;;;;;;2196097;59;2936;-25
2024/02/15 17:14:59;;;;;;;;;;;;;;;;;;2196497;59;2354;-25
2024/02/15 17:17:29;;;;;;;;;;;;;;;;;;2197715;59;2305;-25
2024/02/15 17:19:59;;;;;;;;;;;;;;;;;;2198368;59;2373;-25
2024/02/15 17:22:29;;;;;;;;;;;;;;;;;;2195583;59;2701;-25
2024/02/15 17:25:04;;;;;;;;;;;;;;;;;;2197277;59;2355;-25
2024/02/15 17:27:38;;;;;;;;;;;;;;;;;;2196502;59;2473;-25
2024/02/15 17:30:12;;;;;;;;;;;;;;;;;;2197440;59;2432;-25
2024/02/15 17:32:43;;;;;;;;;;;;;;;;;;2200609;59;2475;-25
2024/02/15 17:35:18;;;;;;;;;;;;;;;;;;2197674;59;1999;-25
2024/02/15 17:37:48;;;;;;;;;;;;;;;;;;2199950;59;2148;-25
2024/02/15 17:40:19;;;;;;;;;;;;;;;;;;2196474;59;2263;-25
2024/02/15 17:42:49;;;;;;;;;;;;;;;;;;2197774;59;2065;-25
2024/02/15 17:45:23;;;;;;;;;;;;;;;;;;2196930;59;2428;-25
2024/02/15 17:47:55;;;;;;;;;;;;;;;;;;2197615;59;1798;-25
2024/02/15 17:50:27;;;;;;;;;;;;;;;;;;2196913;59;1756;-25
2024/02/15 17:52:58;;;;;;;;;;;;;;;;;;2196929;59;3014;-25
2024/02/15 17:55:30;;;;;;;;;;;;;;;;;;2195504;60;2536;-25
2024/02/15 17:58:01;;;;;;;;;;;;;;;;;;2197507;59;2385;-25
2024/02/15 18:00:33;;;;;;;;;;;;;;;;;;2194249;59;1917;-25
2024/02/15 18:03:04;;;;;;;;;;;;;;;;;;2197258;59;2707;-25
2024/02/15 18:05:34;;;;;;;;;;;;;;;;;;2196529;67;1997;-25
2024/02/15 18:08:05;;;;;;;;;;;;;;;;;;2196752;59;2428;-25
2024/02/15 18:10:35;;;;;;;;;;;;;;;;;;2197503;59;1785;-25
2024/02/15 18:13:05;;;;;;;;;;;;;;;;;;2197288;59;2614;-25
2024/02/15 18:15:42;;;;;;;;;;;;;;;;;;2196178;59;2248;-25
2024/02/15 18:18:12;;;;;;;;;;;;;;;;;;2196371;67;2984;-25
2024/02/15 18:20:42;;;;;;;;;;;;;;;;;;2195283;67;1787;-25
2024/02/15 18:23:13;;;;;;;;;;;;;;;;;;2196723;59;1787;-25